Time;durP1;ratioP1;P1;durP2;ratioP2;P2;SDS_P1;SDS_P2;PMS_P1;PMS_P2;Temp;Humidity;BMP_temperature;BMP_pressure;BME280_temperature;BME280_humidity;BME280_pressure;Samples;Min_cycle;Max_cycle;Signal;HPM_P1;HPM_P2
2023/01/14 00:00:25;;;;;;;11.52;2.97;;;13.30;69.30;;;;;;4903101;29;20392;-77
2023/01/14 00:02:51;;;;;;;8.68;2.33;;;13.30;69.10;;;;;;4902919;29;20052;-78
2023/01/14 00:05:17;;;;;;;10.23;2.70;;;13.30;69.20;;;;;;4902804;29;20049;-78
2023/01/14 00:07:43;;;;;;;10.02;2.90;;;13.30;69.20;;;;;;4902973;29;20341;-76
2023/01/14 00:10:09;;;;;;;10.45;2.65;;;13.30;69.10;;;;;;4903209;29;20049;-77
2023/01/14 00:12:35;;;;;;;14.77;3.28;;;13.30;69.20;;;;;;4902181;29;20448;-77
2023/01/14 00:15:01;;;;;;;12.40;3.42;;;13.30;69.20;;;;;;4902715;29;20053;-77
2023/01/14 00:17:27;;;;;;;10.80;2.88;;;13.30;69.10;;;;;;4902493;29;20048;-76
2023/01/14 00:19:53;;;;;;;7.68;2.40;;;13.30;69.20;;;;;;4902536;29;20474;-76
2023/01/14 00:22:19;;;;;;;12.27;3.08;;;13.20;68.90;;;;;;4902167;29;20383;-76
2023/01/14 00:24:47;;;;;;;9.07;2.30;;;13.20;69.20;;;;;;4901930;29;20416;-77
2023/01/14 00:27:12;;;;;;;7.60;2.17;;;13.20;69.20;;;;;;4901838;29;20116;-77
2023/01/14 00:29:38;;;;;;;8.60;2.22;;;13.20;69.10;;;;;;4900140;29;20052;-79
2023/01/14 00:32:05;;;;;;;11.13;2.25;;;13.20;69.20;;;;;;4901311;29;20056;-77
2023/01/14 00:34:32;;;;;;;9.38;2.40;;;13.20;69.30;;;;;;4902765;29;20048;-77
2023/01/14 04:18:32;;;;;;;19.10;2.63;;;12.30;68.40;;;;;;4881988;29;20193;-73
2023/01/14 04:20:58;;;;;;;13.40;3.05;;;12.40;69.00;;;;;;4883924;29;20140;-73
2023/01/14 04:23:24;;;;;;;14.35;2.80;;;12.50;68.70;;;;;;4883390;29;20049;-71
2023/01/14 04:25:58;;;;;;;13.32;2.42;;;12.60;68.20;;;;;;4883581;29;20052;-69
2023/01/14 04:28:25;;;;;;;13.57;3.08;;;12.70;67.70;;;;;;4882408;29;20076;-68
2023/01/14 04:30:51;;;;;;;11.32;2.97;;;12.70;67.10;;;;;;4882757;29;20053;-71
2023/01/14 04:33:17;;;;;;;11.43;2.65;;;12.80;66.80;;;;;;4882579;29;20056;-71
2023/01/14 04:35:50;;;;;;;15.73;3.08;;;12.80;66.50;;;;;;4882606;29;20133;-71
2023/01/14 04:38:17;;;;;;;11.00;3.47;;;12.80;66.20;;;;;;4880080;29;20067;-71
2023/01/14 04:40:43;;;;;;;11.90;3.30;;;12.80;65.90;;;;;;4882756;29;20067;-71
2023/01/14 04:43:09;;;;;;;11.98;2.50;;;12.90;65.60;;;;;;4882540;29;20049;-71
2023/01/14 04:45:35;;;;;;;12.55;3.03;;;12.90;65.40;;;;;;4882602;29;20052;-71
2023/01/14 04:48:02;;;;;;;8.90;2.47;;;12.90;65.20;;;;;;4882580;29;20076;-73
2023/01/14 04:50:31;;;;;;;14.93;3.08;;;12.90;65.10;;;;;;4882598;29;20088;-71
2023/01/14 04:53:12;;;;;;;14.75;3.38;;;12.90;65.00;;;;;;4879919;29;20108;-71
2023/01/14 04:55:39;;;;;;;13.70;3.33;;;12.90;64.80;;;;;;4877421;29;20451;-72
2023/01/14 04:58:08;;;;;;;10.77;2.47;;;12.90;64.70;;;;;;4882357;29;20049;-71
2023/01/14 05:00:34;;;;;;;15.73;3.35;;;12.90;64.80;;;;;;4882166;29;20049;-72
2023/01/14 05:03:08;;;;;;;10.90;2.92;;;12.90;64.70;;;;;;4881831;29;20045;-72
2023/01/14 05:05:35;;;;;;;13.35;2.92;;;12.90;64.60;;;;;;4882160;29;20455;-73
2023/01/14 05:08:03;;;;;;;15.38;2.65;;;12.90;64.70;;;;;;4882024;29;20092;-75
2023/01/14 05:10:29;;;;;;;13.55;3.50;;;12.90;64.70;;;;;;4881884;29;20372;-69
2023/01/14 05:12:58;;;;;;;14.27;3.00;;;12.90;64.70;;;;;;4882826;29;20085;-70
2023/01/14 05:15:33;;;;;;;14.73;3.22;;;12.90;64.60;;;;;;4881639;29;20124;-70
2023/01/14 05:18:00;;;;;;;12.65;3.05;;;12.90;64.60;;;;;;4882525;29;20065;-69
2023/01/14 05:20:26;;;;;;;11.77;2.92;;;12.90;64.60;;;;;;4882612;29;20121;-69
2023/01/14 05:22:58;;;;;;;14.75;2.70;;;12.90;64.60;;;;;;4882591;29;20053;-70
2023/01/14 05:25:25;;;;;;;13.38;2.92;;;12.90;64.60;;;;;;4881936;29;20045;-70
2023/01/14 05:27:50;;;;;;;14.57;2.85;;;12.90;64.60;;;;;;4881774;29;20045;-71
2023/01/14 05:30:16;;;;;;;14.48;2.58;;;12.90;64.60;;;;;;4882454;29;20056;-74
2023/01/14 05:32:42;;;;;;;12.90;2.53;;;12.90;64.60;;;;;;4882064;29;20442;-71
2023/01/14 05:35:09;;;;;;;14.70;3.08;;;12.80;64.70;;;;;;4865845;29;20056;-72
2023/01/14 05:37:35;;;;;;;16.30;3.90;;;12.80;64.90;;;;;;4881255;29;20068;-78
2023/01/14 05:40:01;;;;;;;16.95;3.47;;;12.80;65.20;;;;;;4864651;29;20476;-75
2023/01/14 05:47:56;;;;;;;13.52;2.40;;;13.00;66.20;;;;;;4887340;29;20487;-78
2023/01/14 05:50:22;;;;;;;14.20;2.75;;;13.10;66.30;;;;;;4900649;29;20044;-76
2023/01/14 05:52:48;;;;;;;15.30;2.28;;;13.30;66.50;;;;;;4887105;29;20048;-77
2023/01/14 05:55:13;;;;;;;11.07;2.03;;;13.50;66.60;;;;;;4881525;29;20045;-76
2023/01/14 05:57:39;;;;;;;9.77;2.08;;;13.60;66.90;;;;;;4881785;29;20045;-76
2023/01/14 06:00:06;;;;;;;19.48;3.35;;;13.80;67.10;;;;;;4881754;29;20120;-75
2023/01/14 06:08:03;;;;;;;13.93;2.83;;;14.20;68.40;;;;;;4871234;29;20459;-77
2023/01/14 06:10:29;;;;;;;17.65;3.05;;;14.30;68.00;;;;;;4879509;29;20053;-77
2023/01/14 06:12:57;;;;;;;17.45;3.38;;;14.40;68.30;;;;;;4877318;29;20384;-75
2023/01/14 06:15:32;;;;;;;13.65;2.70;;;14.40;68.70;;;;;;4880359;29;20049;-75
2023/01/14 06:18:09;;;;;;;18.83;2.83;;;14.50;69.30;;;;;;4864182;29;20049;-76
2023/01/14 06:20:37;;;;;;;15.73;3.33;;;14.50;69.40;;;;;;4881469;29;20055;-80
2023/01/14 06:23:05;;;;;;;16.17;3.10;;;14.60;69.70;;;;;;4881118;29;20059;-74
2023/01/14 06:25:31;;;;;;;15.95;3.10;;;14.70;69.80;;;;;;4880284;29;20448;-78
2023/01/14 06:27:58;;;;;;;24.50;4.18;;;14.80;70.10;;;;;;4881008;29;20045;-76
2023/01/14 06:30:24;;;;;;;23.70;2.83;;;14.80;70.20;;;;;;4881256;29;20113;-77
2023/01/14 06:32:49;;;;;;;17.20;2.65;;;15.00;70.40;;;;;;4881706;29;20045;-78
2023/01/14 06:35:15;;;;;;;15.07;3.42;;;15.00;70.50;;;;;;4864640;29;20417;-77
2023/01/14 06:37:44;;;;;;;21.83;2.60;;;15.20;70.60;;;;;;4881130;29;20041;-77
2023/01/14 06:40:11;;;;;;;12.65;2.72;;;15.20;70.70;;;;;;4881445;29;20414;-78
2023/01/14 06:42:37;;;;;;;17.85;3.30;;;15.30;70.50;;;;;;4865054;29;20064;-78
2023/01/14 06:45:03;;;;;;;14.70;2.20;;;15.40;70.40;;;;;;4881092;29;20057;-77
2023/01/14 06:47:28;;;;;;;15.88;2.40;;;15.50;70.20;;;;;;4880287;29;20460;-79
2023/01/14 06:49:54;;;;;;;14.60;2.10;;;15.60;70.20;;;;;;4880746;29;20124;-77
2023/01/14 06:52:21;;;;;;;11.10;2.30;;;15.60;70.10;;;;;;4865078;29;20052;-80
2023/01/14 06:54:47;;;;;;;14.68;3.08;;;15.60;70.10;;;;;;4849376;29;20059;-78
2023/01/14 06:57:13;;;;;;;13.80;2.72;;;15.60;69.90;;;;;;4849541;29;20084;-78
2023/01/14 06:59:39;;;;;;;13.05;2.38;;;15.60;69.90;;;;;;4849064;29;20041;-78
2023/01/14 07:02:05;;;;;;;12.80;2.15;;;15.70;70.00;;;;;;4864268;29;20117;-78
2023/01/14 07:04:31;;;;;;;15.80;2.53;;;15.70;69.90;;;;;;4880840;29;20049;-78
2023/01/14 07:06:57;;;;;;;17.23;3.50;;;15.70;69.70;;;;;;4864893;29;20059;-78
2023/01/14 07:10:22;;;;;;;;;;;;;;;;;;;;;
2023/01/14 07:13:09;;;;;;;12.68;2.67;;;15.80;70.00;;;;;;4876048;29;20476;-82
2023/01/14 07:15:35;;;;;;;19.20;3.30;;;15.80;69.90;;;;;;4864577;29;20117;-84
2023/01/14 07:18:00;;;;;;;20.60;3.17;;;15.80;69.70;;;;;;4880282;29;20041;-80
2023/01/14 07:20:26;;;;;;;23.33;3.63;;;15.80;69.50;;;;;;4863657;29;20040;-82
2023/01/14 07:22:52;;;;;;;18.05;3.20;;;15.90;69.50;;;;;;4865959;29;20059;-77
2023/01/14 07:25:17;;;;;;;27.13;3.67;;;15.90;69.40;;;;;;4861292;29;20042;-79
2023/01/14 07:27:43;;;;;;;30.70;4.47;;;15.80;69.30;;;;;;4861868;29;20381;-83
2023/01/14 07:30:09;;;;;;;20.23;3.55;;;15.80;68.40;;;;;;4845451;29;20122;-76
2023/01/14 07:32:35;;;;;;;15.75;3.08;;;15.80;68.10;;;;;;4862208;29;20120;-78
2023/01/14 07:35:01;;;;;;;16.75;4.13;;;15.80;67.60;;;;;;4845824;29;20133;-78
2023/01/14 07:37:27;;;;;;;17.92;4.40;;;15.60;63.60;;;;;;4862650;29;20195;-78
2023/01/14 07:39:52;;;;;;;20.83;4.82;;;15.40;65.60;;;;;;4865915;29;20400;-78
2023/01/14 07:42:22;;;;;;;21.58;4.22;;;15.40;66.10;;;;;;4864712;29;20053;-82
2023/01/14 07:44:47;;;;;;;17.42;4.53;;;15.40;65.70;;;;;;4849818;29;20068;-75
2023/01/14 07:47:15;;;;;;;16.35;4.38;;;15.30;65.70;;;;;;4862972;29;20456;-74
2023/01/14 07:49:41;;;;;;;18.13;4.10;;;15.10;63.80;;;;;;4880827;29;20076;-75
2023/01/14 07:52:08;;;;;;;18.75;3.65;;;15.20;65.60;;;;;;4883332;29;20127;-76
2023/01/14 07:54:34;;;;;;;19.70;4.70;;;15.10;66.10;;;;;;4883727;29;20045;-75
2023/01/14 07:56:59;;;;;;;18.10;4.80;;;14.90;63.70;;;;;;4883553;29;20060;-75
2023/01/14 07:59:25;;;;;;;18.40;4.38;;;14.60;64.40;;;;;;4867218;29;20045;-76
2023/01/14 08:01:51;;;;;;;15.38;3.80;;;14.50;67.30;;;;;;4883504;29;20045;-72
2023/01/14 08:04:17;;;;;;;16.95;3.80;;;14.70;67.90;;;;;;4883949;29;20129;-77
2023/01/14 08:06:43;;;;;;;20.70;3.83;;;14.90;67.80;;;;;;4884286;29;20393;-75
2023/01/14 08:09:09;;;;;;;19.80;3.53;;;15.10;67.60;;;;;;4883366;29;20049;-74
2023/01/14 08:11:36;;;;;;;24.27;4.32;;;15.30;67.30;;;;;;4867740;29;20136;-75
2023/01/14 08:14:02;;;;;;;22.67;4.53;;;15.50;67.30;;;;;;4883784;29;20057;-77
2023/01/14 08:16:28;;;;;;;17.67;3.70;;;15.70;67.20;;;;;;4882212;29;20472;-76
2023/01/14 08:18:54;;;;;;;17.85;3.92;;;15.80;67.10;;;;;;4866339;29;20057;-76
2023/01/14 08:21:19;;;;;;;20.48;3.97;;;15.90;67.00;;;;;;4881715;29;20060;-75
2023/01/14 08:23:45;;;;;;;17.73;3.70;;;15.90;66.80;;;;;;4880839;29;20436;-76
2023/01/14 08:26:12;;;;;;;20.88;4.07;;;15.90;66.80;;;;;;4882763;29;20051;-76
2023/01/14 08:28:39;;;;;;;12.10;2.92;;;16.00;67.00;;;;;;4883487;29;20045;-76
2023/01/14 08:31:06;;;;;;;23.02;4.68;;;16.00;66.90;;;;;;4883383;29;20417;-76
2023/01/14 08:33:33;;;;;;;15.68;3.95;;;16.00;66.90;;;;;;4883226;29;20060;-76
2023/01/14 08:36:13;;;;;;;13.70;3.20;;;16.00;67.00;;;;;;4866530;29;20049;-76
2023/01/14 08:38:40;;;;;;;13.73;3.40;;;15.90;66.90;;;;;;4883124;29;20060;-75
2023/01/14 08:41:13;;;;;;;16.40;3.40;;;15.90;67.10;;;;;;4882590;29;20492;-73
2023/01/14 08:43:40;;;;;;;19.83;3.53;;;15.80;66.90;;;;;;4883444;29;20081;-78
2023/01/14 08:46:08;;;;;;;22.90;3.55;;;15.70;67.10;;;;;;4882109;29;20100;-76
2023/01/14 08:48:34;;;;;;;25.65;4.00;;;15.70;67.30;;;;;;4880932;29;20500;-78
2023/01/14 08:51:07;;;;;;;17.08;4.00;;;15.70;67.50;;;;;;4880757;29;20499;-76
2023/01/14 08:53:37;;;;;;;26.83;4.43;;;15.70;67.70;;;;;;4882853;29;20108;-76
2023/01/14 08:56:05;;;;;;;22.05;4.10;;;15.60;67.80;;;;;;4882332;29;20082;-76
2023/01/14 08:58:32;;;;;;;22.23;4.43;;;15.60;68.00;;;;;;4882739;29;20512;-76
2023/01/14 09:01:05;;;;;;;24.90;3.88;;;15.60;68.60;;;;;;4882766;29;20116;-78
2023/01/14 09:03:32;;;;;;;;;;;15.50;69.10;;;;;;4883421;29;20117;-77
2023/01/14 09:06:00;;;;;;;22.80;4.45;;;15.20;68.70;;;;;;4883083;29;19924;-75
2023/01/14 09:19:26;;;;;;;22.00;4.78;;;15.20;68.50;;;;;;4881885;29;20052;-76
2023/01/14 09:21:53;;;;;;;20.73;4.18;;;15.30;68.40;;;;;;4866997;29;20060;-77
2023/01/14 09:24:19;;;;;;;16.48;3.67;;;15.20;68.40;;;;;;4882445;29;20104;-75
2023/01/14 09:26:44;;;;;;;18.75;3.88;;;15.20;68.30;;;;;;4882322;29;20139;-76
2023/01/14 09:29:10;;;;;;;17.50;3.40;;;15.20;68.40;;;;;;4866392;29;20068;-76
2023/01/14 09:31:36;;;;;;;12.35;2.95;;;15.10;68.30;;;;;;4882148;29;20072;-74
2023/01/14 09:34:01;;;;;;;17.20;3.55;;;15.20;68.50;;;;;;4865867;29;20256;-76
2023/01/14 09:36:29;;;;;;;11.68;2.70;;;15.10;68.40;;;;;;4882223;29;20362;-75
2023/01/14 09:38:55;;;;;;;19.90;3.47;;;15.10;68.50;;;;;;4882218;29;20109;-76
2023/01/14 09:41:29;;;;;;;11.20;2.67;;;15.10;68.50;;;;;;4882617;29;20071;-75
2023/01/14 09:43:55;;;;;;;17.02;3.78;;;15.10;68.50;;;;;;4850328;29;20053;-76
2023/01/14 09:46:24;;;;;;;13.75;3.17;;;15.00;68.50;;;;;;4882209;29;20193;-76
2023/01/14 09:48:53;;;;;;;12.68;2.67;;;15.00;68.60;;;;;;4881747;29;20049;-76
2023/01/14 09:51:34;;;;;;;9.25;2.75;;;15.00;68.60;;;;;;4882044;29;20057;-77
2023/01/14 09:54:12;;;;;;;18.70;3.20;;;15.00;68.70;;;;;;4882137;29;20186;-76
2023/01/14 09:57:04;;;;;;;9.80;2.40;;;15.00;68.80;;;;;;4881986;29;20053;-75
2023/01/14 09:59:37;;;;;;;12.45;3.13;;;15.00;68.90;;;;;;4882577;29;20116;-75
2023/01/14 10:02:17;;;;;;;10.95;2.25;;;14.90;68.90;;;;;;4882433;29;20041;-78
2023/01/14 10:05:16;;;;;;;10.18;2.38;;;15.00;69.00;;;;;;4865654;29;20064;-76
2023/01/14 10:07:43;;;;;;;15.38;3.70;;;15.00;68.80;;;;;;4865417;29;20457;-76
2023/01/14 10:10:32;;;;;;;8.90;2.10;;;14.90;68.90;;;;;;4881699;29;20049;-77
2023/01/14 10:13:19;;;;;;;8.85;2.38;;;15.00;68.60;;;;;;4881303;29;20117;-76
2023/01/14 10:15:47;;;;;;;9.80;2.95;;;14.90;68.80;;;;;;4881616;29;20504;-75
2023/01/14 10:18:28;;;;;;;8.20;2.10;;;14.90;68.80;;;;;;4864391;29;20116;-75
2023/01/14 10:20:56;;;;;;;10.00;2.55;;;15.00;68.80;;;;;;4881535;29;20479;-75
2023/01/14 10:23:41;;;;;;;6.70;1.80;;;15.00;68.80;;;;;;4881751;29;20053;-75
2023/01/14 10:26:12;;;;;;;7.07;1.77;;;15.00;68.70;;;;;;4881628;29;20056;-76
2023/01/14 10:28:38;;;;;;;7.28;1.80;;;15.00;68.60;;;;;;4881337;29;20057;-78
2023/01/14 10:31:05;;;;;;;6.25;1.65;;;15.00;68.60;;;;;;4881395;29;20060;-74
2023/01/14 10:33:31;;;;;;;7.25;2.17;;;14.90;68.50;;;;;;4865161;29;20061;-75
2023/01/14 10:36:05;;;;;;;7.00;1.58;;;15.00;69.20;;;;;;4865746;29;20053;-77
2023/01/14 10:38:31;;;;;;;5.32;1.60;;;15.00;68.40;;;;;;4881435;29;20056;-75
2023/01/14 10:41:04;;;;;;;5.18;1.52;;;14.90;68.40;;;;;;4881884;29;20056;-75
2023/01/14 10:43:38;;;;;;;6.72;2.25;;;15.00;68.30;;;;;;4881670;29;20416;-75
2023/01/14 10:46:05;;;;;;;5.28;1.50;;;14.90;68.20;;;;;;4881362;29;20056;-76
2023/01/14 10:49:10;;;;;;;7.65;1.30;;;14.90;68.20;;;;;;4880974;29;20081;-75
2023/01/14 10:51:47;;;;;;;7.68;1.35;;;14.90;68.10;;;;;;4880876;29;20445;-75
2023/01/14 10:54:19;;;;;;;7.38;1.70;;;14.90;68.10;;;;;;4881788;29;20056;-76
2023/01/14 10:57:15;;;;;;;4.13;1.02;;;14.90;68.10;;;;;;4881441;29;20049;-76
2023/01/14 10:59:53;;;;;;;5.65;1.42;;;14.90;68.10;;;;;;4881831;29;20057;-74
2023/01/14 11:02:39;;;;;;;4.55;1.40;;;14.90;68.10;;;;;;4881677;29;20040;-76
2023/01/14 11:05:22;;;;;;;5.85;1.55;;;14.90;68.10;;;;;;4881437;29;20059;-73
2023/01/14 11:07:50;;;;;;;4.77;0.97;;;14.90;68.10;;;;;;4881334;29;20053;-72
2023/01/14 11:10:24;;;;;;;5.20;1.13;;;14.90;68.20;;;;;;4880867;29;20282;-76
2023/01/14 11:12:54;;;;;;;6.95;2.10;;;14.90;67.80;;;;;;4882454;29;20402;-77
2023/01/14 11:15:41;;;;;;;3.45;0.95;;;14.80;67.70;;;;;;4884642;29;20057;-77
2023/01/14 11:18:18;;;;;;;5.15;1.38;;;14.80;67.00;;;;;;4884405;29;20068;-77
2023/01/14 11:21:02;;;;;;;10.68;1.95;;;14.80;67.60;;;;;;4884470;29;20444;-78
2023/01/14 11:23:34;;;;;;;5.50;1.00;;;14.80;68.00;;;;;;4884512;29;20045;-77
2023/01/14 11:26:22;;;;;;;6.05;1.85;;;14.80;68.40;;;;;;4869005;29;20767;-77
2023/01/14 11:28:51;;;;;;;4.15;1.50;;;14.70;68.50;;;;;;4858306;29;20092;-77
2023/01/14 11:31:30;;;;;;;4.28;1.48;;;14.70;68.70;;;;;;4884495;29;20132;-69
2023/01/14 11:33:58;;;;;;;4.80;1.05;;;14.70;68.80;;;;;;4884416;29;20124;-70
2023/01/14 11:36:25;;;;;;;4.40;0.98;;;14.60;68.90;;;;;;4868152;29;20476;-73
2023/01/14 11:38:55;;;;;;;7.97;0.90;;;14.60;68.80;;;;;;4884600;29;20053;-73
2023/01/14 11:41:34;;;;;;;5.25;1.00;;;14.60;68.40;;;;;;4868154;29;20057;-74
2023/01/14 11:44:04;;;;;;;4.60;0.88;;;14.60;67.40;;;;;;4867685;29;20468;-74
2023/01/14 11:46:33;;;;;;;8.50;0.85;;;14.60;67.00;;;;;;4884060;29;20036;-75
2023/01/14 11:49:20;;;;;;;3.70;0.80;;;14.50;66.60;;;;;;4884034;29;20041;-77
2023/01/14 11:51:55;;;;;;;3.15;0.50;;;14.50;66.30;;;;;;4884285;29;20049;-76
2023/01/14 11:54:21;;;;;;;3.30;0.50;;;14.40;66.60;;;;;;4883886;29;20053;-76
2023/01/14 11:56:47;;;;;;;1.50;0.55;;;14.40;66.90;;;;;;4884052;29;20421;-77
2023/01/14 11:59:25;;;;;;;2.88;0.70;;;14.30;67.20;;;;;;4883910;29;20053;-77
2023/01/14 12:01:56;;;;;;;2.30;0.75;;;14.40;67.60;;;;;;4867679;29;20052;-77
2023/01/14 12:04:28;;;;;;;4.70;1.27;;;14.30;67.80;;;;;;4883899;29;20049;-81
2023/01/14 12:07:09;;;;;;;5.65;0.60;;;14.40;68.10;;;;;;4867186;29;20041;-78
2023/01/14 12:09:51;;;;;;;2.78;0.70;;;14.40;68.30;;;;;;4851746;29;20057;-77
2023/01/14 12:18:40;;;;;;;2.42;0.60;;;14.40;68.50;;;;;;4880234;29;20136;-76
2023/01/14 12:21:06;;;;;;;1.45;0.68;;;14.40;68.40;;;;;;4880788;29;20144;-78
2023/01/14 12:23:42;;;;;;;2.92;0.77;;;14.40;68.30;;;;;;4882669;29;20124;-80
2023/01/14 12:26:19;;;;;;;4.25;0.55;;;14.40;68.30;;;;;;4882192;29;20056;-77
2023/01/14 12:28:50;;;;;;;3.50;0.50;;;14.30;68.20;;;;;;4885629;29;20099;-74
2023/01/14 12:31:27;;;;;;;3.13;0.40;;;14.30;68.20;;;;;;4883487;29;20051;-75
2023/01/14 12:34:17;;;;;;;1.27;0.25;;;14.30;68.20;;;;;;4882436;29;20051;-76
2023/01/14 12:37:18;;;;;;;3.35;0.50;;;14.30;68.20;;;;;;4865642;29;20057;-80
2023/01/14 12:45:44;;;;;;;2.58;0.32;;;14.30;68.40;;;;;;4880629;29;20441;-78
2023/01/14 12:48:22;;;;;;;2.95;0.68;;;14.20;68.50;;;;;;4881685;29;20060;-80
2023/01/14 12:51:06;;;;;;;4.85;0.70;;;14.20;68.60;;;;;;4881306;29;20380;-77
2023/01/14 12:53:42;;;;;;;1.08;0.30;;;14.20;68.60;;;;;;4881242;29;20060;-77
2023/01/14 12:56:16;;;;;;;1.73;0.40;;;14.20;68.70;;;;;;4881379;29;20080;-76
2023/01/14 12:58:54;;;;;;;2.55;0.43;;;14.20;68.80;;;;;;4878356;29;20061;-81
2023/01/14 13:01:24;;;;;;;1.25;0.70;;;14.20;68.90;;;;;;4874618;29;20465;-78
2023/01/14 13:04:22;;;;;;;0.95;0.30;;;14.20;69.10;;;;;;4881407;29;20049;-76
2023/01/14 13:06:55;;;;;;;3.08;0.50;;;14.20;69.90;;;;;;4857124;29;20065;-76
2023/01/14 13:09:31;;;;;;;5.32;0.98;;;14.20;69.80;;;;;;4879273;29;20049;-75
2023/01/14 13:11:57;;;;;;;1.67;0.50;;;14.20;70.00;;;;;;4870367;29;20120;-75
2023/01/14 13:14:35;;;;;;;5.35;0.77;;;14.30;70.30;;;;;;4880870;29;20453;-76
2023/01/14 13:17:18;;;;;;;3.67;0.63;;;14.50;70.50;;;;;;4878189;29;20080;-80
2023/01/14 13:19:51;;;;;;;4.10;0.45;;;14.50;70.40;;;;;;4877984;29;20059;-80
2023/01/14 13:22:45;;;;;;;2.30;0.40;;;14.60;70.30;;;;;;4880195;29;20122;-80
2023/01/14 13:25:17;;;;;;;4.53;0.35;;;14.70;70.50;;;;;;4877851;29;20382;-80
2023/01/14 13:27:44;;;;;;;3.10;0.40;;;14.80;70.30;;;;;;4880527;29;20052;-78
2023/01/14 13:30:19;;;;;;;3.70;0.55;;;14.90;70.40;;;;;;4879329;29;20476;-78
2023/01/14 13:32:59;;;;;;;4.72;0.50;;;14.90;70.50;;;;;;4880955;29;20085;-79
2023/01/14 13:35:27;;;;;;;3.35;0.40;;;15.00;70.50;;;;;;4881358;29;20108;-79
2023/01/14 13:37:57;;;;;;;4.63;0.40;;;15.00;70.50;;;;;;4881675;29;20052;-78
2023/01/14 13:40:26;;;;;;;2.30;0.50;;;15.00;70.80;;;;;;4856796;29;20060;-79
2023/01/14 13:43:00;;;;;;;5.28;0.77;;;15.10;70.90;;;;;;4881536;29;20055;-78
2023/01/14 13:45:29;;;;;;;6.40;0.65;;;15.10;70.80;;;;;;4881419;29;20524;-78
2023/01/14 13:48:02;;;;;;;4.75;0.82;;;15.20;70.80;;;;;;4864886;29;20097;-80
2023/01/14 13:50:31;;;;;;;6.05;0.50;;;15.30;70.60;;;;;;4880276;29;20036;-77
2023/01/14 13:53:21;;;;;;;7.75;0.82;;;15.40;70.60;;;;;;4879474;29;20175;-78
2023/01/14 13:55:55;;;;;;;2.58;0.60;;;15.50;70.60;;;;;;4879871;29;20056;-77
2023/01/14 13:58:38;;;;;;;5.82;0.50;;;15.60;70.40;;;;;;4869459;29;20465;-78
2023/01/14 14:01:31;;;;;;;4.63;0.90;;;15.70;70.40;;;;;;4846405;29;20122;-82
2023/01/14 14:03:58;;;;;;;5.68;0.80;;;15.80;70.40;;;;;;4862789;29;20059;-75
2023/01/14 14:06:31;;;;;;;6.18;0.63;;;15.80;70.20;;;;;;4862808;29;20045;-82
2023/01/14 14:09:13;;;;;;;4.90;0.30;;;15.90;70.10;;;;;;4875004;29;20087;-82
2023/01/14 14:11:58;;;;;;;7.18;0.45;;;16.00;69.90;;;;;;4864754;29;20087;-85
2023/01/14 14:14:34;;;;;;;2.92;0.40;;;16.00;70.00;;;;;;4864738;29;20053;-81
2023/01/14 14:17:06;;;;;;;4.85;0.63;;;16.00;70.00;;;;;;4861346;29;20057;-80
2023/01/14 14:23:33;;;;;;;8.05;1.05;;;16.10;70.00;;;;;;4880460;29;20056;-84
2023/01/14 14:26:38;;;;;;;11.13;1.27;;;16.10;70.50;;;;;;4865470;29;20104;-83
2023/01/14 14:29:12;;;;;;;11.70;0.77;;;16.20;70.60;;;;;;4868911;29;20057;-84
2023/01/14 14:31:39;;;;;;;6.68;0.90;;;16.20;70.90;;;;;;4849047;29;20041;-79
2023/01/14 14:34:21;;;;;;;11.35;1.23;;;16.20;70.80;;;;;;4864117;29;20472;-77
2023/01/14 14:37:00;;;;;;;12.93;1.48;;;16.20;70.90;;;;;;4864554;29;20060;-81
2023/01/14 14:39:32;;;;;;;17.70;1.75;;;16.20;71.00;;;;;;4848888;29;20038;-80
2023/01/14 14:42:01;;;;;;;10.75;0.85;;;16.20;71.00;;;;;;4864623;29;20055;-79
2023/01/14 14:44:30;;;;;;;12.43;1.73;;;16.20;71.10;;;;;;4880118;29;20149;-78
2023/01/14 14:47:22;;;;;;;18.35;2.03;;;16.20;71.10;;;;;;4863961;29;20049;-76
2023/01/14 14:49:48;;;;;;;20.45;1.45;;;16.20;71.40;;;;;;4880574;29;20036;-77
2023/01/14 14:52:19;;;;;;;15.85;1.60;;;16.10;71.80;;;;;;4880526;29;20435;-77
2023/01/14 14:54:51;;;;;;;13.80;2.08;;;16.20;71.60;;;;;;4864428;29;20060;-81
2023/01/14 14:57:26;;;;;;;12.10;1.58;;;16.20;71.70;;;;;;4863975;29;20063;-80
2023/01/14 14:59:59;;;;;;;13.05;1.80;;;16.20;72.80;;;;;;4880592;29;20049;-80
2023/01/14 15:02:36;;;;;;;16.63;2.38;;;16.20;73.00;;;;;;4863845;29;20037;-85
2023/01/14 15:05:05;;;;;;;6.63;1.23;;;16.10;73.00;;;;;;4849303;29;20041;-85
2023/01/14 15:07:38;;;;;;;14.55;2.03;;;16.20;72.90;;;;;;4860675;29;20366;-83
2023/01/14 15:10:14;;;;;;;17.98;1.70;;;16.20;73.00;;;;;;4870758;29;20120;-85
2023/01/14 15:12:40;;;;;;;6.40;0.80;;;16.20;74.50;;;;;;4876076;29;20033;-84
2023/01/14 15:15:17;;;;;;;16.50;2.33;;;16.20;74.70;;;;;;4859726;29;20061;-85
2023/01/14 15:17:43;;;;;;;18.60;2.03;;;16.20;73.90;;;;;;4879155;29;20053;-85
2023/01/14 15:20:14;;;;;;;18.98;1.77;;;16.20;73.90;;;;;;4871895;29;20129;-83
2023/01/14 15:22:41;;;;;;;19.95;2.15;;;16.20;74.00;;;;;;4876264;29;20405;-87
2023/01/14 15:25:12;;;;;;;20.23;2.15;;;16.20;74.10;;;;;;4845605;29;20041;-83
2023/01/14 15:27:40;;;;;;;14.75;1.20;;;16.20;74.20;;;;;;4845159;29;20390;-84
2023/01/14 15:30:31;;;;;;;14.75;2.58;;;16.30;74.30;;;;;;4861017;29;20101;-84
2023/01/14 15:32:57;;;;;;;13.52;1.88;;;16.30;74.30;;;;;;4840810;29;20038;-83
2023/01/14 15:35:30;;;;;;;16.73;2.17;;;16.30;74.30;;;;;;4846948;29;20385;-82
2023/01/14 15:38:00;;;;;;;;;;;16.30;74.60;;;;;;4880370;29;20460;-84
2023/01/14 15:40:49;;;;;;;12.57;1.10;;;16.20;74.70;;;;;;4862841;29;19920;-83
2023/01/14 15:43:35;;;;;;;15.82;1.95;;;16.20;74.20;;;;;;4849566;29;20049;-83
2023/01/14 15:46:21;;;;;;;11.30;1.40;;;16.20;73.80;;;;;;4875142;29;20054;-82
2023/01/14 15:49:09;;;;;;;8.50;1.35;;;16.10;73.50;;;;;;4845098;29;20037;-83
2023/01/14 15:51:39;;;;;;;9.23;1.10;;;16.10;73.70;;;;;;4874898;29;20079;-85
2023/01/14 15:54:21;;;;;;;9.73;1.40;;;16.10;73.60;;;;;;4864185;29;20356;-82
2023/01/14 15:56:46;;;;;;;12.27;1.30;;;16.10;73.70;;;;;;4877890;29;20041;-84
2023/01/14 15:59:12;;;;;;;12.30;1.00;;;16.10;73.70;;;;;;4854198;29;20038;-84
2023/01/14 16:01:48;;;;;;;12.38;1.00;;;16.10;73.60;;;;;;4848554;29;20136;-83
2023/01/14 16:04:30;;;;;;;14.02;1.60;;;16.10;73.50;;;;;;4851840;29;20379;-83
2023/01/14 16:07:22;;;;;;;17.17;1.73;;;16.00;73.20;;;;;;4867177;29;20045;-84
2023/01/14 16:10:03;;;;;;;10.43;1.20;;;16.00;73.30;;;;;;4841570;29;20497;-81
2023/01/14 16:12:29;;;;;;;16.50;1.38;;;16.10;74.20;;;;;;4851283;29;20140;-82
2023/01/14 16:14:55;;;;;;;8.05;1.40;;;16.10;73.80;;;;;;4850149;29;20193;-84
2023/01/14 16:17:21;;;;;;;17.75;2.05;;;16.10;73.90;;;;;;4865334;29;20552;-77
2023/01/14 16:19:48;;;;;;;11.48;1.52;;;16.10;73.90;;;;;;4882656;29;20106;-78
2023/01/14 16:22:14;;;;;;;9.48;0.60;;;16.10;73.70;;;;;;4883294;29;20068;-79
2023/01/14 16:24:41;;;;;;;13.52;1.40;;;16.00;73.30;;;;;;4882469;29;20049;-78
2023/01/14 17:54:50;;;;;;;8.68;1.60;;;15.10;73.50;;;;;;4900284;23;20493;-78
2023/01/14 17:57:19;;;;;;;3.50;1.13;;;15.10;73.90;;;;;;4889430;29;20061;-75
2023/01/14 17:59:50;;;;;;;5.60;1.02;;;15.10;73.70;;;;;;4899107;29;20083;-78
2023/01/14 18:02:20;;;;;;;5.97;1.50;;;15.10;73.70;;;;;;4919383;29;20044;-81
2023/01/14 18:04:46;;;;;;;5.75;1.23;;;15.10;73.70;;;;;;4919301;29;20050;-78
2023/01/14 18:07:12;;;;;;;6.10;1.30;;;15.10;73.60;;;;;;4902691;29;20044;-75
2023/01/14 18:09:41;;;;;;;4.25;1.25;;;15.20;73.70;;;;;;4919510;29;20123;-79
2023/01/14 18:12:08;;;;;;;8.88;1.67;;;15.20;73.90;;;;;;4887097;29;20070;-76
2023/01/14 18:14:34;;;;;;;6.53;1.45;;;15.20;73.90;;;;;;4919078;29;20359;-77
2023/01/14 18:17:00;;;;;;;6.68;1.58;;;15.20;73.90;;;;;;4902418;29;20044;-79
2023/01/14 18:19:27;;;;;;;6.68;1.63;;;15.20;74.00;;;;;;4918851;29;20091;-77
2023/01/14 18:21:53;;;;;;;9.55;1.85;;;15.20;73.90;;;;;;4919186;29;20048;-77
2023/01/14 18:24:19;;;;;;;6.57;1.60;;;15.20;73.80;;;;;;4919372;29;20048;-78
2023/01/14 18:26:44;;;;;;;3.25;1.02;;;15.30;73.90;;;;;;4919879;29;20335;-78
2023/01/14 18:29:11;;;;;;;5.68;1.20;;;15.30;74.10;;;;;;4902439;29;20444;-78
2023/01/14 18:31:36;;;;;;;5.93;1.50;;;15.30;74.20;;;;;;4918866;29;20059;-79
2023/01/14 18:34:06;;;;;;;4.80;1.05;;;15.30;74.50;;;;;;4918880;29;20047;-76
2023/01/14 18:36:35;;;;;;;6.35;1.58;;;15.30;74.50;;;;;;4919040;29;20044;-79
2023/01/14 18:39:03;;;;;;;7.05;1.52;;;15.30;74.80;;;;;;4918649;29;20086;-80
2023/01/14 18:41:28;;;;;;;7.35;1.33;;;15.30;74.60;;;;;;4901580;29;20111;-81
2023/01/14 18:43:55;;;;;;;13.55;2.00;;;15.30;74.50;;;;;;4885843;29;20202;-81
2023/01/14 18:46:24;;;;;;;7.05;1.42;;;15.20;74.50;;;;;;4886011;29;20059;-82
2023/01/14 18:48:50;;;;;;;8.30;1.42;;;15.20;74.50;;;;;;4918423;29;20059;-83
2023/01/14 18:51:19;;;;;;;7.57;1.55;;;15.10;74.60;;;;;;4908169;29;20044;-82